sensor_id;sensor_type;location;lat;lon;timestamp;P1;durP1;ratioP1;P2;durP2;ratioP2
63444;SDS011;49573;47.682;9.170;2023-04-01T00:00:59;3.10;;;0.80;;
63444;SDS011;49573;47.682;9.170;2023-04-01T00:03:46;2.28;;;0.70;;
63444;SDS011;49573;47.682;9.170;2023-04-01T00:06:33;2.15;;;0.60;;
63444;SDS011;49573;47.682;9.170;2023-04-01T00:09:19;2.03;;;0.82;;
63444;SDS011;49573;47.682;9.170;2023-04-01T00:12:06;3.53;;;1.02;;
63444;SDS011;49573;47.682;9.170;2023-04-01T00:14:52;1.60;;;0.43;;
63444;SDS011;49573;47.682;9.170;2023-04-01T00:17:40;2.67;;;0.73;;
63444;SDS011;49573;47.682;9.170;2023-04-01T00:20:27;1.17;;;0.45;;
63444;SDS011;49573;47.682;9.170;2023-04-01T00:23:13;3.10;;;0.73;;
63444;SDS011;49573;47.682;9.170;2023-04-01T00:26:00;5.53;;;0.90;;
63444;SDS011;49573;47.682;9.170;2023-04-01T00:28:46;3.95;;;1.10;;
63444;SDS011;49573;47.682;9.170;2023-04-01T00:31:33;2.03;;;0.85;;
63444;SDS011;49573;47.682;9.170;2023-04-01T00:34:20;2.50;;;0.95;;
63444;SDS011;49573;47.682;9.170;2023-04-01T00:37:07;1.90;;;0.73;;
63444;SDS011;49573;47.682;9.170;2023-04-01T00:39:53;3.28;;;1.10;;
63444;SDS011;49573;47.682;9.170;2023-04-01T00:42:40;3.13;;;0.90;;
63444;SDS011;49573;47.682;9.170;2023-04-01T00:45:28;1.30;;;0.63;;
63444;SDS011;49573;47.682;9.170;2023-04-01T00:48:16;1.45;;;0.40;;
63444;SDS011;49573;47.682;9.170;2023-04-01T00:51:06;4.68;;;0.82;;
63444;SDS011;49573;47.682;9.170;2023-04-01T00:53:54;1.88;;;0.57;;
63444;SDS011;49573;47.682;9.170;2023-04-01T00:56:41;0.73;;;0.60;;
63444;SDS011;49573;47.682;9.170;2023-04-01T00:59:30;0.80;;;0.40;;
63444;SDS011;49573;47.682;9.170;2023-04-01T01:02:18;2.35;;;0.80;;
63444;SDS011;49573;47.682;9.170;2023-04-01T01:05:05;1.42;;;0.22;;
63444;SDS011;49573;47.682;9.170;2023-04-01T01:07:54;1.75;;;0.38;;
63444;SDS011;49573;47.682;9.170;2023-04-01T01:10:43;2.60;;;0.68;;
63444;SDS011;49573;47.682;9.170;2023-04-01T01:13:36;1.33;;;0.55;;
63444;SDS011;49573;47.682;9.170;2023-04-01T01:16:27;0.60;;;0.30;;
63444;SDS011;49573;47.682;9.170;2023-04-01T01:19:21;1.48;;;0.17;;
63444;SDS011;49573;47.682;9.170;2023-04-01T01:22:12;0.68;;;0.30;;
63444;SDS011;49573;47.682;9.170;2023-04-01T01:25:08;0.88;;;0.30;;
63444;SDS011;49573;47.682;9.170;2023-04-01T01:27:58;1.45;;;0.40;;
63444;SDS011;49573;47.682;9.170;2023-04-01T01:30:50;2.38;;;0.50;;
63444;SDS011;49573;47.682;9.170;2023-04-01T01:33:44;0.73;;;0.20;;
63444;SDS011;49573;47.682;9.170;2023-04-01T01:36:34;1.42;;;0.50;;
63444;SDS011;49573;47.682;9.170;2023-04-01T01:39:23;2.42;;;0.32;;
63444;SDS011;49573;47.682;9.170;2023-04-01T01:42:15;1.17;;;0.43;;
63444;SDS011;49573;47.682;9.170;2023-04-01T01:45:02;1.75;;;0.30;;
63444;SDS011;49573;47.682;9.170;2023-04-01T01:47:50;1.15;;;0.40;;
63444;SDS011;49573;47.682;9.170;2023-04-01T01:50:37;1.85;;;0.70;;
63444;SDS011;49573;47.682;9.170;2023-04-01T01:53:27;2.03;;;0.57;;
63444;SDS011;49573;47.682;9.170;2023-04-01T01:56:13;1.50;;;0.65;;
63444;SDS011;49573;47.682;9.170;2023-04-01T01:59:00;2.58;;;0.57;;
63444;SDS011;49573;47.682;9.170;2023-04-01T02:01:50;2.10;;;0.70;;
63444;SDS011;49573;47.682;9.170;2023-04-01T02:04:37;1.52;;;0.60;;
63444;SDS011;49573;47.682;9.170;2023-04-01T02:07:27;2.13;;;0.68;;
63444;SDS011;49573;47.682;9.170;2023-04-01T02:10:15;2.28;;;0.60;;
63444;SDS011;49573;47.682;9.170;2023-04-01T02:13:04;1.23;;;0.55;;
63444;SDS011;49573;47.682;9.170;2023-04-01T02:15:54;2.10;;;0.52;;
63444;SDS011;49573;47.682;9.170;2023-04-01T02:18:42;1.02;;;0.40;;
63444;SDS011;49573;47.682;9.170;2023-04-01T02:21:30;1.65;;;0.60;;
63444;SDS011;49573;47.682;9.170;2023-04-01T02:24:18;3.63;;;0.80;;
63444;SDS011;49573;47.682;9.170;2023-04-01T02:27:10;3.40;;;0.98;;
63444;SDS011;49573;47.682;9.170;2023-04-01T02:29:57;2.60;;;0.73;;
63444;SDS011;49573;47.682;9.170;2023-04-01T02:32:43;4.10;;;0.95;;
63444;SDS011;49573;47.682;9.170;2023-04-01T02:35:30;2.47;;;0.50;;
63444;SDS011;49573;47.682;9.170;2023-04-01T02:38:18;2.72;;;0.80;;
63444;SDS011;49573;47.682;9.170;2023-04-01T02:41:05;2.30;;;0.90;;
63444;SDS011;49573;47.682;9.170;2023-04-01T02:43:52;2.65;;;0.95;;
63444;SDS011;49573;47.682;9.170;2023-04-01T02:46:40;1.35;;;0.63;;
63444;SDS011;49573;47.682;9.170;2023-04-01T02:49:26;3.30;;;0.57;;
63444;SDS011;49573;47.682;9.170;2023-04-01T02:52:13;1.88;;;0.93;;
63444;SDS011;49573;47.682;9.170;2023-04-01T02:54:59;1.75;;;0.60;;
63444;SDS011;49573;47.682;9.170;2023-04-01T02:57:45;2.08;;;0.77;;
63444;SDS011;49573;47.682;9.170;2023-04-01T03:00:33;1.35;;;0.80;;
63444;SDS011;49573;47.682;9.170;2023-04-01T03:03:20;1.92;;;0.70;;
63444;SDS011;49573;47.682;9.170;2023-04-01T03:06:06;3.67;;;0.60;;
63444;SDS011;49573;47.682;9.170;2023-04-01T03:08:53;1.58;;;0.70;;
63444;SDS011;49573;47.682;9.170;2023-04-01T03:11:40;1.88;;;0.73;;
63444;SDS011;49573;47.682;9.170;2023-04-01T03:14:26;3.97;;;0.90;;
63444;SDS011;49573;47.682;9.170;2023-04-01T03:17:14;2.97;;;1.00;;
63444;SDS011;49573;47.682;9.170;2023-04-01T03:20:00;3.95;;;1.17;;
63444;SDS011;49573;47.682;9.170;2023-04-01T03:22:50;3.03;;;0.90;;
63444;SDS011;49573;47.682;9.170;2023-04-01T03:25:36;5.35;;;1.20;;
63444;SDS011;49573;47.682;9.170;2023-04-01T03:28:23;4.38;;;1.30;;
63444;SDS011;49573;47.682;9.170;2023-04-01T03:31:09;3.15;;;0.90;;
63444;SDS011;49573;47.682;9.170;2023-04-01T03:33:57;3.97;;;0.90;;
63444;SDS011;49573;47.682;9.170;2023-04-01T03:36:43;3.63;;;1.20;;
63444;SDS011;49573;47.682;9.170;2023-04-01T03:39:30;2.70;;;0.73;;
63444;SDS011;49573;47.682;9.170;2023-04-01T03:42:17;2.25;;;0.80;;
63444;SDS011;49573;47.682;9.170;2023-04-01T03:45:03;3.58;;;1.20;;
63444;SDS011;49573;47.682;9.170;2023-04-01T03:50:38;4.10;;;1.20;;
63444;SDS011;49573;47.682;9.170;2023-04-01T03:53:24;4.47;;;0.93;;
63444;SDS011;49573;47.682;9.170;2023-04-01T03:56:12;3.22;;;1.02;;
63444;SDS011;49573;47.682;9.170;2023-04-01T03:58:58;4.93;;;1.20;;
63444;SDS011;49573;47.682;9.170;2023-04-01T04:01:47;3.45;;;1.27;;
63444;SDS011;49573;47.682;9.170;2023-04-01T04:04:33;5.28;;;1.25;;
63444;SDS011;49573;47.682;9.170;2023-04-01T04:07:21;3.45;;;0.95;;
63444;SDS011;49573;47.682;9.170;2023-04-01T04:10:08;2.90;;;0.88;;
63444;SDS011;49573;47.682;9.170;2023-04-01T04:12:54;5.47;;;2.22;;
63444;SDS011;49573;47.682;9.170;2023-04-01T04:15:41;2.42;;;0.85;;
63444;SDS011;49573;47.682;9.170;2023-04-01T04:18:27;1.42;;;0.73;;
63444;SDS011;49573;47.682;9.170;2023-04-01T04:21:14;2.90;;;0.98;;
63444;SDS011;49573;47.682;9.170;2023-04-01T04:24:02;3.22;;;1.35;;
63444;SDS011;49573;47.682;9.170;2023-04-01T04:26:48;4.60;;;1.02;;
63444;SDS011;49573;47.682;9.170;2023-04-01T04:29:35;3.80;;;0.88;;
63444;SDS011;49573;47.682;9.170;2023-04-01T04:32:21;2.15;;;0.98;;
63444;SDS011;49573;47.682;9.170;2023-04-01T04:35:08;3.80;;;1.52;;
63444;SDS011;49573;47.682;9.170;2023-04-01T04:37:55;2.88;;;0.90;;
63444;SDS011;49573;47.682;9.170;2023-04-01T04:40:42;5.93;;;2.40;;
63444;SDS011;49573;47.682;9.170;2023-04-01T04:43:29;5.28;;;1.60;;
63444;SDS011;49573;47.682;9.170;2023-04-01T04:46:15;3.47;;;0.90;;
63444;SDS011;49573;47.682;9.170;2023-04-01T04:49:02;1.60;;;0.60;;
63444;SDS011;49573;47.682;9.170;2023-04-01T04:51:48;2.45;;;0.85;;
63444;SDS011;49573;47.682;9.170;2023-04-01T04:54:35;3.15;;;0.80;;
63444;SDS011;49573;47.682;9.170;2023-04-01T04:57:22;3.63;;;0.93;;
63444;SDS011;49573;47.682;9.170;2023-04-01T05:00:09;1.67;;;0.65;;
63444;SDS011;49573;47.682;9.170;2023-04-01T05:02:56;3.10;;;0.90;;
63444;SDS011;49573;47.682;9.170;2023-04-01T05:05:48;3.55;;;0.80;;
63444;SDS011;49573;47.682;9.170;2023-04-01T05:08:35;3.22;;;0.90;;
63444;SDS011;49573;47.682;9.170;2023-04-01T05:11:21;2.42;;;1.02;;
63444;SDS011;49573;47.682;9.170;2023-04-01T05:14:12;4.25;;;1.13;;
63444;SDS011;49573;47.682;9.170;2023-04-01T05:16:59;4.55;;;0.85;;
63444;SDS011;49573;47.682;9.170;2023-04-01T05:19:45;4.13;;;1.17;;
63444;SDS011;49573;47.682;9.170;2023-04-01T05:22:31;3.80;;;1.10;;
63444;SDS011;49573;47.682;9.170;2023-04-01T05:25:18;2.67;;;0.80;;
63444;SDS011;49573;47.682;9.170;2023-04-01T05:28:04;3.65;;;1.08;;
63444;SDS011;49573;47.682;9.170;2023-04-01T05:30:52;2.20;;;0.80;;
63444;SDS011;49573;47.682;9.170;2023-04-01T05:33:38;4.95;;;1.25;;
63444;SDS011;49573;47.682;9.170;2023-04-01T05:36:25;5.75;;;1.10;;
63444;SDS011;49573;47.682;9.170;2023-04-01T05:39:11;3.80;;;1.33;;
63444;SDS011;49573;47.682;9.170;2023-04-01T05:41:58;6.13;;;0.93;;
63444;SDS011;49573;47.682;9.170;2023-04-01T05:44:45;2.95;;;0.60;;
63444;SDS011;49573;47.682;9.170;2023-04-01T05:47:32;4.72;;;1.30;;
63444;SDS011;49573;47.682;9.170;2023-04-01T05:50:19;2.28;;;0.45;;
63444;SDS011;49573;47.682;9.170;2023-04-01T05:53:05;1.45;;;0.70;;
63444;SDS011;49573;47.682;9.170;2023-04-01T05:55:52;3.53;;;0.85;;
63444;SDS011;49573;47.682;9.170;2023-04-01T05:58:38;0.50;;;0.35;;
63444;SDS011;49573;47.682;9.170;2023-04-01T06:01:25;1.00;;;0.47;;
63444;SDS011;49573;47.682;9.170;2023-04-01T06:04:14;1.10;;;0.40;;
63444;SDS011;49573;47.682;9.170;2023-04-01T06:07:01;1.80;;;0.55;;
63444;SDS011;49573;47.682;9.170;2023-04-01T06:09:51;1.20;;;0.40;;
63444;SDS011;49573;47.682;9.170;2023-04-01T06:12:43;2.83;;;0.95;;
63444;SDS011;49573;47.682;9.170;2023-04-01T06:15:35;1.60;;;0.57;;
63444;SDS011;49573;47.682;9.170;2023-04-01T06:18:29;1.67;;;0.30;;
63444;SDS011;49573;47.682;9.170;2023-04-01T06:24:30;1.23;;;0.60;;
63444;SDS011;49573;47.682;9.170;2023-04-01T06:27:22;2.08;;;0.47;;
63444;SDS011;49573;47.682;9.170;2023-04-01T06:30:18;1.58;;;0.60;;
63444;SDS011;49573;47.682;9.170;2023-04-01T06:33:15;0.98;;;0.60;;
63444;SDS011;49573;47.682;9.170;2023-04-01T06:36:09;2.92;;;0.40;;
63444;SDS011;49573;47.682;9.170;2023-04-01T06:39:06;3.03;;;0.88;;
63444;SDS011;49573;47.682;9.170;2023-04-01T06:42:09;2.30;;;0.60;;
63444;SDS011;49573;47.682;9.170;2023-04-01T06:45:01;2.47;;;0.55;;
63444;SDS011;49573;47.682;9.170;2023-04-01T06:47:52;2.17;;;0.50;;
63444;SDS011;49573;47.682;9.170;2023-04-01T06:50:43;1.75;;;0.75;;
63444;SDS011;49573;47.682;9.170;2023-04-01T06:53:31;2.95;;;0.77;;
63444;SDS011;49573;47.682;9.170;2023-04-01T06:56:20;3.75;;;0.73;;
63444;SDS011;49573;47.682;9.170;2023-04-01T06:59:10;0.70;;;0.30;;
63444;SDS011;49573;47.682;9.170;2023-04-01T07:02:00;0.52;;;0.25;;
63444;SDS011;49573;47.682;9.170;2023-04-01T07:04:48;0.85;;;0.40;;
63444;SDS011;49573;47.682;9.170;2023-04-01T07:07:35;0.82;;;0.50;;
63444;SDS011;49573;47.682;9.170;2023-04-01T07:10:25;1.40;;;0.40;;
63444;SDS011;49573;47.682;9.170;2023-04-01T07:13:16;1.75;;;0.80;;
63444;SDS011;49573;47.682;9.170;2023-04-01T07:16:08;0.82;;;0.40;;
63444;SDS011;49573;47.682;9.170;2023-04-01T07:18:58;1.13;;;0.60;;
63444;SDS011;49573;47.682;9.170;2023-04-01T07:21:47;1.08;;;0.40;;
63444;SDS011;49573;47.682;9.170;2023-04-01T07:24:36;2.08;;;0.68;;
63444;SDS011;49573;47.682;9.170;2023-04-01T07:27:23;2.38;;;0.50;;
63444;SDS011;49573;47.682;9.170;2023-04-01T07:30:13;1.50;;;0.47;;
63444;SDS011;49573;47.682;9.170;2023-04-01T07:33:03;1.95;;;0.63;;
63444;SDS011;49573;47.682;9.170;2023-04-01T07:35:51;0.75;;;0.55;;
63444;SDS011;49573;47.682;9.170;2023-04-01T07:38:44;1.30;;;0.60;;
63444;SDS011;49573;47.682;9.170;2023-04-01T07:41:37;1.33;;;0.60;;
63444;SDS011;49573;47.682;9.170;2023-04-01T07:44:28;0.43;;;0.25;;
63444;SDS011;49573;47.682;9.170;2023-04-01T07:47:20;2.67;;;0.40;;
63444;SDS011;49573;47.682;9.170;2023-04-01T07:50:11;1.65;;;0.57;;
63444;SDS011;49573;47.682;9.170;2023-04-01T07:53:03;0.22;;;0.20;;
63444;SDS011;49573;47.682;9.170;2023-04-01T07:55:55;1.45;;;0.70;;
63444;SDS011;49573;47.682;9.170;2023-04-01T07:58:47;0.85;;;0.32;;
63444;SDS011;49573;47.682;9.170;2023-04-01T08:01:36;2.10;;;0.38;;
63444;SDS011;49573;47.682;9.170;2023-04-01T08:04:29;2.00;;;0.52;;
63444;SDS011;49573;47.682;9.170;2023-04-01T08:07:22;2.25;;;0.40;;
63444;SDS011;49573;47.682;9.170;2023-04-01T08:10:11;2.40;;;0.60;;
63444;SDS011;49573;47.682;9.170;2023-04-01T08:13:01;1.38;;;0.60;;
63444;SDS011;49573;47.682;9.170;2023-04-01T08:15:53;1.02;;;0.40;;
63444;SDS011;49573;47.682;9.170;2023-04-01T08:18:43;1.25;;;0.50;;
63444;SDS011;49573;47.682;9.170;2023-04-01T08:21:34;1.73;;;0.85;;
63444;SDS011;49573;47.682;9.170;2023-04-01T08:24:24;0.55;;;0.32;;
63444;SDS011;49573;47.682;9.170;2023-04-01T08:27:11;1.25;;;0.40;;
63444;SDS011;49573;47.682;9.170;2023-04-01T08:30:01;2.45;;;0.35;;
63444;SDS011;49573;47.682;9.170;2023-04-01T08:32:49;0.28;;;0.28;;
63444;SDS011;49573;47.682;9.170;2023-04-01T08:35:38;0.47;;;0.28;;
63444;SDS011;49573;47.682;9.170;2023-04-01T08:38:28;0.57;;;0.40;;
63444;SDS011;49573;47.682;9.170;2023-04-01T08:41:28;0.93;;;0.32;;
63444;SDS011;49573;47.682;9.170;2023-04-01T08:44:21;0.60;;;0.20;;
63444;SDS011;49573;47.682;9.170;2023-04-01T08:47:17;1.55;;;0.30;;
63444;SDS011;49573;47.682;9.170;2023-04-01T08:50:21;1.35;;;0.60;;
63444;SDS011;49573;47.682;9.170;2023-04-01T08:53:11;0.47;;;0.30;;
63444;SDS011;49573;47.682;9.170;2023-04-01T08:56:06;0.43;;;0.20;;
63444;SDS011;49573;47.682;9.170;2023-04-01T08:58:59;0.13;;;0.10;;
63444;SDS011;49573;47.682;9.170;2023-04-01T09:01:53;1.50;;;0.40;;
63444;SDS011;49573;47.682;9.170;2023-04-01T09:04:49;0.47;;;0.30;;
63444;SDS011;49573;47.682;9.170;2023-04-01T09:07:40;1.10;;;0.45;;
63444;SDS011;49573;47.682;9.170;2023-04-01T09:10:34;0.10;;;0.10;;
63444;SDS011;49573;47.682;9.170;2023-04-01T09:19:48;0.77;;;0.35;;
63444;SDS011;49573;47.682;9.170;2023-04-01T09:22:44;1.27;;;0.43;;
63444;SDS011;49573;47.682;9.170;2023-04-01T09:28:38;0.85;;;0.38;;
63444;SDS011;49573;47.682;9.170;2023-04-01T09:31:45;0.82;;;0.43;;
63444;SDS011;49573;47.682;9.170;2023-04-01T09:34:38;1.45;;;0.50;;
63444;SDS011;49573;47.682;9.170;2023-04-01T09:37:35;2.42;;;0.70;;
63444;SDS011;49573;47.682;9.170;2023-04-01T09:40:24;0.75;;;0.30;;
63444;SDS011;49573;47.682;9.170;2023-04-01T09:43:16;1.55;;;0.57;;
63444;SDS011;49573;47.682;9.170;2023-04-01T09:46:12;1.05;;;0.57;;
63444;SDS011;49573;47.682;9.170;2023-04-01T09:49:15;0.65;;;0.38;;
63444;SDS011;49573;47.682;9.170;2023-04-01T09:52:15;0.35;;;0.35;;
63444;SDS011;49573;47.682;9.170;2023-04-01T09:55:17;0.50;;;0.30;;
63444;SDS011;49573;47.682;9.170;2023-04-01T10:01:25;1.30;;;0.40;;
63444;SDS011;49573;47.682;9.170;2023-04-01T10:04:31;1.48;;;0.52;;
63444;SDS011;49573;47.682;9.170;2023-04-01T10:07:35;1.05;;;0.32;;
63444;SDS011;49573;47.682;9.170;2023-04-01T10:10:47;0.60;;;0.50;;
63444;SDS011;49573;47.682;9.170;2023-04-01T10:13:56;2.65;;;0.50;;
63444;SDS011;49573;47.682;9.170;2023-04-01T10:17:03;0.73;;;0.50;;
63444;SDS011;49573;47.682;9.170;2023-04-01T10:19:56;0.65;;;0.38;;
63444;SDS011;49573;47.682;9.170;2023-04-01T10:22:55;0.52;;;0.35;;
63444;SDS011;49573;47.682;9.170;2023-04-01T10:26:00;1.35;;;0.40;;
63444;SDS011;49573;47.682;9.170;2023-04-01T10:35:14;0.47;;;0.20;;
63444;SDS011;49573;47.682;9.170;2023-04-01T10:38:12;0.50;;;0.30;;
63444;SDS011;49573;47.682;9.170;2023-04-01T10:44:20;1.65;;;0.30;;
63444;SDS011;49573;47.682;9.170;2023-04-01T10:47:16;0.75;;;0.30;;
63444;SDS011;49573;47.682;9.170;2023-04-01T10:50:15;1.08;;;0.70;;
63444;SDS011;49573;47.682;9.170;2023-04-01T10:53:11;2.13;;;0.60;;
63444;SDS011;49573;47.682;9.170;2023-04-01T10:56:15;0.85;;;0.68;;
63444;SDS011;49573;47.682;9.170;2023-04-01T10:59:15;1.10;;;0.60;;
63444;SDS011;49573;47.682;9.170;2023-04-01T11:08:45;0.55;;;0.40;;
63444;SDS011;49573;47.682;9.170;2023-04-01T11:11:52;1.00;;;0.40;;
63444;SDS011;49573;47.682;9.170;2023-04-01T11:18:01;0.90;;;0.40;;
63444;SDS011;49573;47.682;9.170;2023-04-01T11:20:54;0.80;;;0.55;;
63444;SDS011;49573;47.682;9.170;2023-04-01T11:23:56;0.52;;;0.40;;
63444;SDS011;49573;47.682;9.170;2023-04-01T11:26:49;0.32;;;0.32;;
63444;SDS011;49573;47.682;9.170;2023-04-01T11:29:41;0.20;;;0.20;;
63444;SDS011;49573;47.682;9.170;2023-04-01T11:35:38;0.25;;;0.25;;
63444;SDS011;49573;47.682;9.170;2023-04-01T11:38:31;1.15;;;0.40;;
63444;SDS011;49573;47.682;9.170;2023-04-01T11:41:25;0.65;;;0.50;;
63444;SDS011;49573;47.682;9.170;2023-04-01T11:44:17;0.35;;;0.30;;
63444;SDS011;49573;47.682;9.170;2023-04-01T11:47:14;0.75;;;0.40;;
63444;SDS011;49573;47.682;9.170;2023-04-01T11:50:15;1.73;;;0.95;;
63444;SDS011;49573;47.682;9.170;2023-04-01T11:53:11;1.75;;;0.57;;
63444;SDS011;49573;47.682;9.170;2023-04-01T11:56:02;0.38;;;0.30;;
63444;SDS011;49573;47.682;9.170;2023-04-01T11:58:57;0.47;;;0.40;;
63444;SDS011;49573;47.682;9.170;2023-04-01T12:01:50;1.90;;;0.30;;
63444;SDS011;49573;47.682;9.170;2023-04-01T12:10:59;0.60;;;0.55;;
63444;SDS011;49573;47.682;9.170;2023-04-01T12:13:49;0.73;;;0.30;;
63444;SDS011;49573;47.682;9.170;2023-04-01T12:16:43;0.57;;;0.40;;
63444;SDS011;49573;47.682;9.170;2023-04-01T12:19:33;0.50;;;0.35;;
63444;SDS011;49573;47.682;9.170;2023-04-01T12:22:23;0.93;;;0.50;;
63444;SDS011;49573;47.682;9.170;2023-04-01T12:25:25;0.65;;;0.50;;
63444;SDS011;49573;47.682;9.170;2023-04-01T12:28:15;0.57;;;0.45;;
63444;SDS011;49573;47.682;9.170;2023-04-01T12:31:08;0.30;;;0.20;;
63444;SDS011;49573;47.682;9.170;2023-04-01T12:34:08;0.77;;;0.60;;
63444;SDS011;49573;47.682;9.170;2023-04-01T12:37:00;1.35;;;0.40;;
63444;SDS011;49573;47.682;9.170;2023-04-01T12:39:58;1.70;;;0.57;;
63444;SDS011;49573;47.682;9.170;2023-04-01T12:42:51;0.98;;;0.40;;
63444;SDS011;49573;47.682;9.170;2023-04-01T12:45:42;0.40;;;0.40;;
63444;SDS011;49573;47.682;9.170;2023-04-01T12:48:36;0.38;;;0.32;;
63444;SDS011;49573;47.682;9.170;2023-04-01T12:51:30;1.10;;;0.40;;
63444;SDS011;49573;47.682;9.170;2023-04-01T12:54:30;1.00;;;0.32;;
63444;SDS011;49573;47.682;9.170;2023-04-01T12:57:23;0.40;;;0.35;;
63444;SDS011;49573;47.682;9.170;2023-04-01T13:00:14;1.75;;;0.50;;
63444;SDS011;49573;47.682;9.170;2023-04-01T13:03:06;0.60;;;0.40;;
63444;SDS011;49573;47.682;9.170;2023-04-01T13:06:03;0.40;;;0.40;;
63444;SDS011;49573;47.682;9.170;2023-04-01T13:08:57;0.50;;;0.50;;
63444;SDS011;49573;47.682;9.170;2023-04-01T13:11:49;1.25;;;0.90;;
63444;SDS011;49573;47.682;9.170;2023-04-01T13:14:44;1.02;;;0.70;;
63444;SDS011;49573;47.682;9.170;2023-04-01T13:17:36;0.55;;;0.52;;
63444;SDS011;49573;47.682;9.170;2023-04-01T13:20:28;0.70;;;0.70;;
63444;SDS011;49573;47.682;9.170;2023-04-01T13:23:24;0.25;;;0.25;;
63444;SDS011;49573;47.682;9.170;2023-04-01T13:26:16;1.20;;;0.40;;
63444;SDS011;49573;47.682;9.170;2023-04-01T13:29:04;1.83;;;0.70;;
63444;SDS011;49573;47.682;9.170;2023-04-01T13:32:02;0.52;;;0.40;;
63444;SDS011;49573;47.682;9.170;2023-04-01T13:34:56;0.88;;;0.57;;
63444;SDS011;49573;47.682;9.170;2023-04-01T13:37:49;0.80;;;0.60;;
63444;SDS011;49573;47.682;9.170;2023-04-01T13:40:43;1.70;;;1.10;;
63444;SDS011;49573;47.682;9.170;2023-04-01T13:43:36;1.55;;;0.80;;
63444;SDS011;49573;47.682;9.170;2023-04-01T13:46:27;5.97;;;2.85;;
63444;SDS011;49573;47.682;9.170;2023-04-01T13:49:21;2.85;;;1.20;;
63444;SDS011;49573;47.682;9.170;2023-04-01T13:52:19;0.82;;;0.60;;
63444;SDS011;49573;47.682;9.170;2023-04-01T13:55:24;1.95;;;0.95;;
63444;SDS011;49573;47.682;9.170;2023-04-01T13:58:17;1.38;;;0.50;;
63444;SDS011;49573;47.682;9.170;2023-04-01T14:01:10;1.70;;;0.60;;
63444;SDS011;49573;47.682;9.170;2023-04-01T14:07:04;1.25;;;0.50;;
63444;SDS011;49573;47.682;9.170;2023-04-01T14:10:07;0.60;;;0.43;;
63444;SDS011;49573;47.682;9.170;2023-04-01T14:13:00;0.40;;;0.32;;
63444;SDS011;49573;47.682;9.170;2023-04-01T14:15:57;2.50;;;0.90;;
63444;SDS011;49573;47.682;9.170;2023-04-01T14:18:50;0.85;;;0.60;;
63444;SDS011;49573;47.682;9.170;2023-04-01T14:21:41;0.50;;;0.40;;
63444;SDS011;49573;47.682;9.170;2023-04-01T14:24:32;0.82;;;0.60;;
63444;SDS011;49573;47.682;9.170;2023-04-01T14:30:31;2.25;;;0.70;;
63444;SDS011;49573;47.682;9.170;2023-04-01T14:33:23;1.55;;;0.60;;
63444;SDS011;49573;47.682;9.170;2023-04-01T14:39:24;2.08;;;0.80;;
63444;SDS011;49573;47.682;9.170;2023-04-01T14:42:21;1.67;;;1.45;;
63444;SDS011;49573;47.682;9.170;2023-04-01T14:45:22;0.82;;;0.50;;
63444;SDS011;49573;47.682;9.170;2023-04-01T14:48:17;0.55;;;0.30;;
63444;SDS011;49573;47.682;9.170;2023-04-01T14:51:17;1.30;;;0.35;;
63444;SDS011;49573;47.682;9.170;2023-04-01T14:54:06;1.52;;;0.63;;
63444;SDS011;49573;47.682;9.170;2023-04-01T14:57:01;1.10;;;0.70;;
63444;SDS011;49573;47.682;9.170;2023-04-01T14:59:51;2.38;;;0.63;;
63444;SDS011;49573;47.682;9.170;2023-04-01T15:02:42;1.15;;;0.40;;
63444;SDS011;49573;47.682;9.170;2023-04-01T15:05:32;0.95;;;0.55;;
63444;SDS011;49573;47.682;9.170;2023-04-01T15:08:24;1.60;;;0.50;;
63444;SDS011;49573;47.682;9.170;2023-04-01T15:14:20;0.75;;;0.63;;
63444;SDS011;49573;47.682;9.170;2023-04-01T15:17:20;0.45;;;0.30;;
63444;SDS011;49573;47.682;9.170;2023-04-01T15:20:13;0.73;;;0.73;;
63444;SDS011;49573;47.682;9.170;2023-04-01T15:23:05;1.73;;;1.23;;
63444;SDS011;49573;47.682;9.170;2023-04-01T15:26:05;1.27;;;0.60;;
63444;SDS011;49573;47.682;9.170;2023-04-01T15:28:56;1.13;;;1.00;;
63444;SDS011;49573;47.682;9.170;2023-04-01T15:31:48;0.20;;;0.20;;
63444;SDS011;49573;47.682;9.170;2023-04-01T15:34:42;0.80;;;0.52;;
63444;SDS011;49573;47.682;9.170;2023-04-01T15:37:33;1.05;;;0.73;;
63444;SDS011;49573;47.682;9.170;2023-04-01T15:40:24;1.60;;;0.82;;
63444;SDS011;49573;47.682;9.170;2023-04-01T15:43:15;2.45;;;1.13;;
63444;SDS011;49573;47.682;9.170;2023-04-01T15:49:18;0.98;;;0.70;;
63444;SDS011;49573;47.682;9.170;2023-04-01T15:52:10;0.25;;;0.25;;
63444;SDS011;49573;47.682;9.170;2023-04-01T15:55:12;0.35;;;0.20;;
63444;SDS011;49573;47.682;9.170;2023-04-01T15:58:04;1.05;;;0.57;;
63444;SDS011;49573;47.682;9.170;2023-04-01T16:00:53;0.85;;;0.60;;
63444;SDS011;49573;47.682;9.170;2023-04-01T16:03:43;1.13;;;0.43;;
63444;SDS011;49573;47.682;9.170;2023-04-01T16:06:42;0.93;;;0.40;;
63444;SDS011;49573;47.682;9.170;2023-04-01T16:09:37;1.08;;;0.43;;
63444;SDS011;49573;47.682;9.170;2023-04-01T16:12:31;1.45;;;0.50;;
63444;SDS011;49573;47.682;9.170;2023-04-01T16:15:22;1.27;;;0.60;;
63444;SDS011;49573;47.682;9.170;2023-04-01T16:18:20;0.52;;;0.30;;
63444;SDS011;49573;47.682;9.170;2023-04-01T16:21:12;0.57;;;0.38;;
63444;SDS011;49573;47.682;9.170;2023-04-01T16:24:02;1.52;;;0.55;;
63444;SDS011;49573;47.682;9.170;2023-04-01T16:26:52;1.10;;;0.60;;
63444;SDS011;49573;47.682;9.170;2023-04-01T16:29:41;0.47;;;0.40;;
63444;SDS011;49573;47.682;9.170;2023-04-01T16:32:34;0.30;;;0.30;;
63444;SDS011;49573;47.682;9.170;2023-04-01T16:35:25;0.50;;;0.30;;
63444;SDS011;49573;47.682;9.170;2023-04-01T16:38:16;1.05;;;0.45;;
63444;SDS011;49573;47.682;9.170;2023-04-01T16:41:10;0.47;;;0.47;;
63444;SDS011;49573;47.682;9.170;2023-04-01T16:43:58;0.70;;;0.43;;
63444;SDS011;49573;47.682;9.170;2023-04-01T16:46:55;0.85;;;0.47;;
63444;SDS011;49573;47.682;9.170;2023-04-01T16:52:35;0.32;;;0.28;;
63444;SDS011;49573;47.682;9.170;2023-04-01T16:55:41;0.50;;;0.38;;
63444;SDS011;49573;47.682;9.170;2023-04-01T16:58:33;0.80;;;0.55;;
63444;SDS011;49573;47.682;9.170;2023-04-01T17:01:21;0.80;;;0.50;;
63444;SDS011;49573;47.682;9.170;2023-04-01T17:04:11;1.08;;;0.70;;
63444;SDS011;49573;47.682;9.170;2023-04-01T17:07:01;0.52;;;0.30;;
63444;SDS011;49573;47.682;9.170;2023-04-01T17:09:58;1.23;;;0.60;;
63444;SDS011;49573;47.682;9.170;2023-04-01T17:12:48;0.55;;;0.32;;
63444;SDS011;49573;47.682;9.170;2023-04-01T17:15:39;1.85;;;0.90;;
63444;SDS011;49573;47.682;9.170;2023-04-01T17:18:28;1.20;;;0.38;;
63444;SDS011;49573;47.682;9.170;2023-04-01T17:21:22;1.30;;;0.65;;
63444;SDS011;49573;47.682;9.170;2023-04-01T17:24:14;2.65;;;1.00;;
63444;SDS011;49573;47.682;9.170;2023-04-01T17:27:12;2.30;;;1.10;;
63444;SDS011;49573;47.682;9.170;2023-04-01T17:30:16;2.78;;;1.55;;
63444;SDS011;49573;47.682;9.170;2023-04-01T17:33:12;3.42;;;1.30;;
63444;SDS011;49573;47.682;9.170;2023-04-01T17:36:04;3.50;;;1.27;;
63444;SDS011;49573;47.682;9.170;2023-04-01T17:42:04;1.42;;;0.43;;
63444;SDS011;49573;47.682;9.170;2023-04-01T17:44:53;0.57;;;0.40;;
63444;SDS011;49573;47.682;9.170;2023-04-01T17:47:45;1.13;;;0.88;;
63444;SDS011;49573;47.682;9.170;2023-04-01T17:50:42;2.50;;;1.60;;
63444;SDS011;49573;47.682;9.170;2023-04-01T17:53:33;2.63;;;1.35;;
63444;SDS011;49573;47.682;9.170;2023-04-01T17:56:22;1.10;;;0.50;;
63444;SDS011;49573;47.682;9.170;2023-04-01T17:59:13;0.47;;;0.47;;
63444;SDS011;49573;47.682;9.170;2023-04-01T18:02:03;1.13;;;0.65;;
63444;SDS011;49573;47.682;9.170;2023-04-01T18:05:11;1.23;;;0.70;;
63444;SDS011;49573;47.682;9.170;2023-04-01T18:08:13;0.90;;;0.70;;
63444;SDS011;49573;47.682;9.170;2023-04-01T18:11:05;0.80;;;0.68;;
63444;SDS011;49573;47.682;9.170;2023-04-01T18:13:58;0.80;;;0.60;;
63444;SDS011;49573;47.682;9.170;2023-04-01T18:16:49;2.53;;;0.60;;
63444;SDS011;49573;47.682;9.170;2023-04-01T18:19:42;1.10;;;0.40;;
63444;SDS011;49573;47.682;9.170;2023-04-01T18:22:34;2.28;;;0.57;;